Map

Track Data

SID SEASON NUMBER BASIN SUBBASIN NAME ISO_TIME NATURE LAT LON WMO_WIND WMO_PRES WMO_AGENCY TRACK_TYPE DIST2LAND LANDFALL IFLAG USA_AGENCY USA_ATCF_ID USA_LAT USA_LON USA_RECORD USA_STATUS USA_WIND USA_PRES USA_SSHS USA_R34_NE USA_R34_SE USA_R34_SW USA_R34_NW USA_R50_NE USA_R50_SE USA_R50_SW USA_R50_NW USA_R64_NE USA_R64_SE USA_R64_SW USA_R64_NW USA_POCI USA_ROCI USA_RMW USA_EYE TOKYO_LAT TOKYO_LON TOKYO_GRADE TOKYO_WIND TOKYO_PRES TOKYO_R50_DIR TOKYO_R50_LONG TOKYO_R50_SHORT TOKYO_R30_DIR TOKYO_R30_LONG TOKYO_R30_SHORT TOKYO_LAND CMA_LAT CMA_LON CMA_CAT CMA_WIND CMA_PRES HKO_LAT HKO_LON HKO_CAT HKO_WIND HKO_PRES NEWDELHI_LAT NEWDELHI_LON NEWDELHI_GRADE NEWDELHI_WIND NEWDELHI_PRES NEWDELHI_CI NEWDELHI_DP NEWDELHI_POCI REUNION_LAT REUNION_LON REUNION_TYPE REUNION_WIND REUNION_PRES REUNION_TNUM REUNION_CI REUNION_RMW REUNION_R34_NE REUNION_R34_SE REUNION_R34_SW REUNION_R34_NW REUNION_R50_NE REUNION_R50_SE REUNION_R50_SW REUNION_R50_NW REUNION_R64_NE REUNION_R64_SE REUNION_R64_SW REUNION_R64_NW BOM_LAT BOM_LON BOM_TYPE BOM_WIND BOM_PRES BOM_TNUM BOM_CI BOM_RMW BOM_R34_NE BOM_R34_SE BOM_R34_SW BOM_R34_NW BOM_R50_NE BOM_R50_SE BOM_R50_SW BOM_R50_NW BOM_R64_NE BOM_R64_SE BOM_R64_SW BOM_R64_NW BOM_ROCI BOM_POCI BOM_EYE BOM_POS_METHOD BOM_PRES_METHOD NADI_LAT NADI_LON NADI_CAT NADI_WIND NADI_PRES WELLINGTON_LAT WELLINGTON_LON WELLINGTON_WIND WELLINGTON_PRES DS824_LAT DS824_LON DS824_STAGE DS824_WIND DS824_PRES TD9636_LAT TD9636_LON TD9636_STAGE TD9636_WIND TD9636_PRES TD9635_LAT TD9635_LON TD9635_WIND TD9635_PRES TD9635_ROCI NEUMANN_LAT NEUMANN_LON NEUMANN_CLASS NEUMANN_WIND NEUMANN_PRES MLC_LAT MLC_LON MLC_CLASS MLC_WIND MLC_PRES USA_GUST BOM_GUST BOM_GUST_PER REUNION_GUST REUNION_GUST_PER USA_SEAHGT USA_SEARAD_NE USA_SEARAD_SE USA_SEARAD_SW USA_SEARAD_NW STORM_SPEED STORM_DIR
1995167N11254 1995 28 EP MM ADOLPH 1995-06-15 12:00:00 TS 11.4000 -105.900 25 1011 hurdat_epa main 814 796 O_____________ hurdat_epa EP021995 11.4000 -105.900 TD 25 1011 -1 5 338
1995167N11254 1995 28 EP MM ADOLPH 1995-06-15 15:00:00 TS 11.6400 -105.997 main 796 768 P_____________ EP021995 11.6400 -105.997 TD 27 1009 -1 5 338
1995167N11254 1995 28 EP MM ADOLPH 1995-06-15 18:00:00 TS 11.9000 -106.100 30 1008 hurdat_epa main 768 741 O_____________ hurdat_epa EP021995 11.9000 -106.100 TD 30 1008 -1 6 340
1995167N11254 1995 28 EP MM ADOLPH 1995-06-15 21:00:00 TS 12.1925 -106.207 main 741 715 P_____________ EP021995 12.1925 -106.207 TD 32 1006 -1 6 342
1995167N11254 1995 28 EP MM ADOLPH 1995-06-16 00:00:00 TS 12.5000 -106.300 35 1005 hurdat_epa main 715 689 O_____________ hurdat_epa EP021995 12.5000 -106.300 TS 35 1005 0 6 345
1995167N11254 1995 28 EP MM ADOLPH 1995-06-16 03:00:00 TS 12.8075 -106.372 main 689 659 P_____________ EP021995 12.8075 -106.372 TS 37 1002 0 6 351
1995167N11254 1995 28 EP MM ADOLPH 1995-06-16 06:00:00 TS 13.1000 -106.400 40 1000 hurdat_epa main 659 639 O_____________ hurdat_epa EP021995 13.1000 -106.400 TS 40 1000 0 5 0
1995167N11254 1995 28 EP MM ADOLPH 1995-06-16 09:00:00 TS 13.3500 -106.365 main 630 605 P_____________ EP021995 13.3500 -106.365 TS 45 997 0 5 11
1995167N11254 1995 28 EP MM ADOLPH 1995-06-16 12:00:00 TS 13.6000 -106.300 50 995 hurdat_epa main 605 570 O_____________ hurdat_epa EP021995 13.6000 -106.300 TS 50 995 0 6 13
1995167N11254 1995 28 EP MM ADOLPH 1995-06-16 15:00:00 TS 13.8925 -106.235 main 570 541 P_____________ EP021995 13.8925 -106.235 TS 55 992 0 6 9
1995167N11254 1995 28 EP MM ADOLPH 1995-06-16 18:00:00 TS 14.2000 -106.200 60 990 hurdat_epa main 541 513 O_____________ hurdat_epa EP021995 14.2000 -106.200 TS 60 990 0 6 2
1995167N11254 1995 28 EP MM ADOLPH 1995-06-16 21:00:00 TS 14.5000 -106.220 main 513 492 P_____________ EP021995 14.5000 -106.220 TS 65 986 1 6 351
1995167N11254 1995 28 EP MM ADOLPH 1995-06-17 00:00:00 TS 14.8000 -106.300 70 983 hurdat_epa main 492 472 O_____________ hurdat_epa EP021995 14.8000 -106.300 HU 70 983 1 7 341
1995167N11254 1995 28 EP MM ADOLPH 1995-06-17 03:00:00 TS 15.1150 -106.435 main 472 462 P_____________ EP021995 15.1150 -106.435 HU 75 979 1 7 334
1995167N11254 1995 28 EP MM ADOLPH 1995-06-17 06:00:00 TS 15.4000 -106.600 80 975 hurdat_epa main 462 450 O_____________ hurdat_epa EP021995 15.4000 -106.600 HU 80 975 1 6 329
1995167N11254 1995 28 EP MM ADOLPH 1995-06-17 09:00:00 TS 15.6150 -106.750 main 455 440 P_____________ EP021995 15.6150 -106.750 HU 85 971 2 5 324
1995167N11254 1995 28 EP MM ADOLPH 1995-06-17 12:00:00 TS 15.8000 -106.900 90 967 hurdat_epa main 440 427 O_____________ hurdat_epa EP021995 15.8000 -106.900 HU 90 967 2 5 323
1995167N11254 1995 28 EP MM ADOLPH 1995-06-17 15:00:00 TS 16.0000 -107.050 main 433 421 P_____________ EP021995 16.0000 -107.050 HU 95 963 2 5 324
1995167N11254 1995 28 EP MM ADOLPH 1995-06-17 18:00:00 TS 16.2000 -107.200 100 960 hurdat_epa main 421 410 O_____________ hurdat_epa EP021995 16.2000 -107.200 HU 100 960 3 5 324
1995167N11254 1995 28 EP MM ADOLPH 1995-06-17 21:00:00 TS 16.3925 -107.350 main 417 407 P_____________ EP021995 16.3925 -107.350 HU 105 956 3 5 324
1995167N11254 1995 28 EP MM ADOLPH 1995-06-18 00:00:00 TS 16.6000 -107.500 110 953 hurdat_epa main 407 399 O_____________ hurdat_epa EP021995 16.6000 -107.500 HU 110 953 3 5 329
1995167N11254 1995 28 EP MM ADOLPH 1995-06-18 03:00:00 TS 16.8500 -107.635 main 399 391 P_____________ EP021995 16.8500 -107.635 HU 112 950 3 6 330
1995167N11254 1995 28 EP MM ADOLPH 1995-06-18 06:00:00 TS 17.1000 -107.800 115 948 hurdat_epa main 391 384 O_____________ hurdat_epa EP021995 17.1000 -107.800 HU 115 948 4 6 321
1995167N11254 1995 28 EP MM ADOLPH 1995-06-18 09:00:00 TS 17.3150 -108.035 main 391 391 P_____________ EP021995 17.3150 -108.035 HU 112 950 3 6 310
1995167N11254 1995 28 EP MM ADOLPH 1995-06-18 12:00:00 TS 17.5000 -108.300 110 953 hurdat_epa main 400 400 O_____________ hurdat_epa EP021995 17.5000 -108.300 HU 110 953 3 6 304
1995167N11254 1995 28 EP MM ADOLPH 1995-06-18 15:00:00 TS 17.6500 -108.565 main 413 413 P_____________ EP021995 17.6500 -108.565 HU 105 956 3 6 302
1995167N11254 1995 28 EP MM ADOLPH 1995-06-18 18:00:00 TS 17.8000 -108.800 100 960 hurdat_epa main 425 421 O_____________ hurdat_epa EP021995 17.8000 -108.800 HU 100 960 3 5 314
1995167N11254 1995 28 EP MM ADOLPH 1995-06-18 21:00:00 TS 18.0149 -108.958 main 430 424 P_____________ EP021995 18.0149 -108.958 HU 92 966 2 5 325
1995167N11254 1995 28 EP MM ADOLPH 1995-06-19 00:00:00 TS 18.2000 -109.100 85 973 hurdat_epa main 428 428 O_____________ hurdat_epa EP021995 18.2000 -109.100 HU 85 973 2 4 309
1995167N11254 1995 28 EP MM ADOLPH 1995-06-19 03:00:00 TS 18.2800 -109.300 main 442 442 P_____________ EP021995 18.2800 -109.300 HU 77 979 1 4 285
1995167N11254 1995 28 EP MM ADOLPH 1995-06-19 06:00:00 TS 18.3000 -109.500 70 985 hurdat_epa main 461 461 O_____________ hurdat_epa EP021995 18.3000 -109.500 HU 70 985 1 3 276
1995167N11254 1995 28 EP MM ADOLPH 1995-06-19 09:00:00 TS 18.3149 -109.650 main 470 480 P_____________ EP021995 18.3149 -109.650 HU 65 988 1 3 270
1995167N11254 1995 28 EP MM ADOLPH 1995-06-19 12:00:00 TS 18.3000 -109.800 60 992 hurdat_epa main 490 490 O_____________ hurdat_epa EP021995 18.3000 -109.800 TS 60 992 0 3 260
1995167N11254 1995 28 EP MM ADOLPH 1995-06-19 15:00:00 TS 18.2575 -109.993 main 508 508 P_____________ EP021995 18.2575 -109.993 TS 55 994 0 4 255
1995167N11254 1995 28 EP MM ADOLPH 1995-06-19 18:00:00 TS 18.2000 -110.200 50 997 hurdat_epa main 526 526 O_____________ hurdat_epa EP021995 18.2000 -110.200 TS 50 997 0 4 252
1995167N11254 1995 28 EP MM ADOLPH 1995-06-19 21:00:00 TS 18.1350 -110.400 main 538 538 P_____________ EP021995 18.1350 -110.400 TS 45 998 0 4 255
1995167N11254 1995 28 EP MM ADOLPH 1995-06-20 00:00:00 TS 18.1000 -110.600 40 1000 hurdat_epa main 540 540 O_____________ hurdat_epa EP021995 18.1000 -110.600 TS 40 1000 0 4 271
1995167N11254 1995 28 EP MM ADOLPH 1995-06-20 03:00:00 TS 18.1425 -110.815 main 543 532 P_____________ EP021995 18.1425 -110.815 TS 37 1000 0 4 285
1995167N11254 1995 28 EP MM ADOLPH 1995-06-20 06:00:00 TS 18.2000 -111.000 35 1001 hurdat_epa main 535 535 O_____________ hurdat_epa EP021995 18.2000 -111.000 TS 35 1001 0 3 281
1995167N11254 1995 28 EP MM ADOLPH 1995-06-20 09:00:00 TS 18.2000 -111.115 main 537 537 P_____________ EP021995 18.2000 -111.115 TS 32 1001 -1 2 270
1995167N11254 1995 28 EP MM ADOLPH 1995-06-20 12:00:00 TS 18.2000 -111.200 30 1002 hurdat_epa main 540 540 O_____________ hurdat_epa EP021995 18.2000 -111.200 TD 30 1002 -1 2 285
1995167N11254 1995 28 EP MM ADOLPH 1995-06-20 15:00:00 TS 18.2500 -111.307 main 531 531 P_____________ EP021995 18.2500 -111.307 TD 30 1002 -1 2 298
1995167N11254 1995 28 EP MM ADOLPH 1995-06-20 18:00:00 TS 18.3000 -111.400 30 1003 hurdat_epa main 534 534 O_____________ hurdat_epa EP021995 18.3000 -111.400 TD 30 1003 -1 2 288
1995167N11254 1995 28 EP MM ADOLPH 1995-06-20 21:00:00 TS 18.3000 -111.465 main 537 537 P_____________ EP021995 18.3000 -111.465 TD 27 1003 -1 1 270
1995167N11254 1995 28 EP MM ADOLPH 1995-06-21 00:00:00 TS 18.3000 -111.500 25 1004 hurdat_epa main 537 537 O_____________ hurdat_epa EP021995 18.3000 -111.500 TD 25 1004 -1 1 312
1995167N11254 1995 28 EP MM ADOLPH 1995-06-21 03:00:00 TS 18.3375 -111.507 main 537 526 P_____________ EP021995 18.3375 -111.507 TD 22 1005 -1 1 0
1995167N11254 1995 28 EP MM ADOLPH 1995-06-21 06:00:00 TS 18.4000 -111.500 20 1006 hurdat_epa main 526 O_____________ hurdat_epa EP021995 18.4000 -111.500 TD 20 1006 -1 1 0

About IBTrACS Database

This database is a web-friendly format of International Best Track Archive for Climate Stewardship (IBTrACS), a global best track data archive curated by NOAA dating back to 1842.

Updated: 2021-10-08